Augusta, Michigan
Current Conditions -  °F | °C
As of 9:53 PM on Monday 20 Oct 2014 (Local Time) from KBTL Reporting Station
Overcast Overcast  
Wind Chill: 52°   Ceiling: 5500
Heat Index: 52°   Visibility: 10mi
Dew Point: 42°   Wind: 14mph
Humidity: 69%   Direction: 350°N
Pressure: 29.92"   Gusts: NA
Location:  42.34°N, 85.35°W
Report Text: KBTL 210153Z 35012KT 10SM OVC055 11/06 A2992 RMK AO2 SLP134 T01110056
Loading
Personal Weather Stations






























Interactive Weather Map New forecast layout! Learn more

10-Day Weather Forecast

Advertisements
Track Severe Weather on mobile